createdAt,value
2023-02-24T00:01:25.060Z,0.40
2023-02-24T00:03:52.638Z,0.40
2023-02-24T00:06:19.969Z,0.40
2023-02-24T00:08:47.425Z,0.40
2023-02-24T00:11:15.238Z,0.40
2023-02-24T00:13:46.784Z,0.50
2023-02-24T00:16:14.957Z,0.50
2023-02-24T00:18:41.895Z,0.60
2023-02-24T00:21:11.072Z,0.50
2023-02-24T00:23:38.464Z,0.50
2023-02-24T00:26:06.804Z,0.60
2023-02-24T00:28:34.411Z,0.50
2023-02-24T00:31:05.903Z,0.50
2023-02-24T00:33:33.278Z,0.50
2023-02-24T00:36:12.177Z,0.60
2023-02-24T00:38:39.295Z,0.60
2023-02-24T00:41:14.471Z,0.60
2023-02-24T00:43:47.030Z,0.60
2023-02-24T00:46:18.158Z,0.70
2023-02-24T00:48:47.975Z,0.60
2023-02-24T00:51:23.389Z,0.60
2023-02-24T00:53:51.131Z,0.60
2023-02-24T00:56:18.147Z,0.70
2023-02-24T00:58:45.088Z,0.70
2023-02-24T01:01:13.844Z,0.70
2023-02-24T01:03:42.271Z,0.60
2023-02-24T01:06:09.502Z,0.70
2023-02-24T01:08:36.454Z,0.70
2023-02-24T01:11:27.363Z,0.60
2023-02-24T01:13:54.203Z,0.70
2023-02-24T01:16:21.001Z,0.70
2023-02-24T01:18:48.171Z,0.70
2023-02-24T01:21:18.643Z,0.70
2023-02-24T01:23:49.498Z,0.70
2023-02-24T01:26:16.967Z,0.70
2023-02-24T01:28:48.134Z,0.80
2023-02-24T01:31:18.381Z,0.80
2023-02-24T01:33:45.957Z,0.80
2023-02-24T01:36:15.373Z,0.70
2023-02-24T01:38:45.388Z,0.70
2023-02-24T01:41:22.931Z,0.70
2023-02-24T01:43:58.885Z,0.70
2023-02-24T01:46:26.811Z,0.70
2023-02-24T01:48:55.727Z,0.70
2023-02-24T01:51:23.051Z,0.70
2023-02-24T01:53:49.887Z,0.80
2023-02-24T01:56:16.900Z,0.80
2023-02-24T01:58:43.829Z,0.80
2023-02-24T02:01:10.779Z,0.80
2023-02-24T02:03:39.729Z,0.80
2023-02-24T02:06:07.953Z,0.80
2023-02-24T02:08:39.121Z,0.80
2023-02-24T02:11:13.334Z,0.80
2023-02-24T02:13:43.214Z,0.80
2023-02-24T02:16:16.229Z,0.80
2023-02-24T02:18:56.470Z,0.90
2023-02-24T02:21:32.855Z,0.80
2023-02-24T02:24:08.616Z,0.90
2023-02-24T02:26:41.218Z,0.80
2023-02-24T02:29:08.339Z,0.90
2023-02-24T02:31:51.117Z,0.90
2023-02-24T02:34:36.755Z,0.90
2023-02-24T02:37:24.618Z,0.90
2023-02-24T02:39:58.817Z,0.90
2023-02-24T02:42:30.303Z,0.90
2023-02-24T02:45:05.090Z,0.80
2023-02-24T02:47:41.619Z,0.90
2023-02-24T02:50:19.584Z,0.80
2023-02-24T02:52:49.324Z,0.90
2023-02-24T02:55:21.680Z,0.90
2023-02-24T02:57:51.864Z,0.90
2023-02-24T03:00:23.299Z,0.90
2023-02-24T03:02:52.062Z,1.00
2023-02-24T03:05:21.504Z,1.00
2023-02-24T03:07:52.809Z,0.90
2023-02-24T03:10:24.938Z,1.00
2023-02-24T03:12:53.636Z,1.00
2023-02-24T03:15:24.187Z,1.00
2023-02-24T03:17:57.409Z,1.00
2023-02-24T03:20:32.830Z,1.00
2023-02-24T03:23:02.683Z,1.00
2023-02-24T03:25:38.323Z,1.00
2023-02-24T03:28:11.551Z,1.00
2023-02-24T03:30:43.632Z,1.00
2023-02-24T03:33:16.806Z,1.00
2023-02-24T03:35:43.730Z,1.00
2023-02-24T03:38:11.078Z,1.00
2023-02-24T03:40:39.651Z,1.00
2023-02-24T03:43:09.104Z,1.00
2023-02-24T03:45:38.100Z,1.10
2023-02-24T03:48:07.231Z,1.10
2023-02-24T03:50:34.398Z,1.10
2023-02-24T03:53:27.797Z,1.10
2023-02-24T03:56:01.948Z,1.10
2023-02-24T03:58:52.550Z,1.10
2023-02-24T04:01:25.511Z,1.10
2023-02-24T04:03:58.168Z,1.10
2023-02-24T04:06:31.000Z,1.10
2023-02-24T04:09:17.793Z,1.10
2023-02-24T04:11:49.804Z,1.10
2023-02-24T04:14:25.025Z,1.10
2023-02-24T04:16:57.118Z,1.20
2023-02-24T04:19:24.796Z,1.10
2023-02-24T04:21:51.569Z,1.20
2023-02-24T04:24:21.215Z,1.20
2023-02-24T04:26:48.537Z,1.20
2023-02-24T04:29:20.603Z,1.20
2023-02-24T04:31:50.243Z,1.20
2023-02-24T04:34:20.181Z,1.10
2023-02-24T04:36:50.511Z,1.20
2023-02-24T04:39:18.959Z,1.20
2023-02-24T04:41:49.380Z,1.10
2023-02-24T04:44:21.128Z,1.20
2023-02-24T04:46:49.797Z,1.20
2023-02-24T04:49:18.053Z,1.20
2023-02-24T04:51:44.826Z,1.20
2023-02-24T04:54:17.599Z,1.20
2023-02-24T04:56:45.240Z,1.30
2023-02-24T04:59:12.112Z,1.30
2023-02-24T05:01:39.990Z,1.30
2023-02-24T05:04:07.334Z,1.30
2023-02-24T05:06:34.446Z,1.30
2023-02-24T05:09:01.618Z,1.30
2023-02-24T05:11:34.909Z,1.30
2023-02-24T05:14:04.581Z,1.30
2023-02-24T05:16:32.068Z,1.30
2023-02-24T05:19:17.428Z,1.30
2023-02-24T05:21:44.182Z,1.40
2023-02-24T05:24:11.640Z,1.40
2023-02-24T05:26:41.739Z,1.40
2023-02-24T05:29:09.390Z,1.40
2023-02-24T05:31:37.167Z,1.40
2023-02-24T05:34:08.040Z,1.40
2023-02-24T05:36:40.340Z,1.40
2023-02-24T05:39:07.917Z,1.40
2023-02-24T05:41:36.157Z,1.40
2023-02-24T05:44:05.128Z,1.50
2023-02-24T05:46:32.968Z,1.40
2023-02-24T05:49:09.177Z,1.40
2023-02-24T05:51:36.910Z,1.40
2023-02-24T05:54:04.856Z,1.50
2023-02-24T05:56:32.815Z,1.50
2023-02-24T05:59:03.084Z,1.50
2023-02-24T06:01:33.765Z,1.50
2023-02-24T06:04:05.983Z,1.50
2023-02-24T06:06:35.257Z,1.50
2023-02-24T06:09:07.640Z,1.50
2023-02-24T06:11:35.021Z,1.50
2023-02-24T06:14:02.278Z,1.60
2023-02-24T06:16:30.236Z,1.60
2023-02-24T06:18:58.091Z,1.60
2023-02-24T06:21:26.628Z,1.60
2023-02-24T06:23:53.351Z,1.60
2023-02-24T06:26:20.156Z,1.60
2023-02-24T06:28:48.058Z,1.60
2023-02-24T06:31:15.168Z,1.60
2023-02-24T06:33:41.944Z,1.60
2023-02-24T06:36:08.980Z,1.60
2023-02-24T06:38:36.559Z,1.60
2023-02-24T06:41:06.472Z,1.70
2023-02-24T06:43:33.407Z,1.70
2023-02-24T06:46:02.317Z,1.70
2023-02-24T06:48:29.183Z,1.70
2023-02-24T06:50:56.855Z,1.80
2023-02-24T06:53:24.043Z,1.80
2023-02-24T06:55:50.735Z,1.80
2023-02-24T06:58:19.441Z,1.80
2023-02-24T07:00:56.817Z,1.80
2023-02-24T07:03:24.939Z,1.90
2023-02-24T07:06:11.105Z,1.90
2023-02-24T07:08:38.366Z,1.90
2023-02-24T07:11:06.459Z,1.90
2023-02-24T07:13:33.430Z,1.90
2023-02-24T07:16:06.846Z,2.00
2023-02-24T07:18:36.283Z,2.00
2023-02-24T07:21:11.466Z,2.00
2023-02-24T07:23:41.767Z,2.10
2023-02-24T07:26:15.228Z,2.10
2023-02-24T07:28:42.764Z,2.10
2023-02-24T07:31:13.769Z,2.10
2023-02-24T07:33:40.783Z,2.10
2023-02-24T07:36:11.146Z,2.20
2023-02-24T07:38:38.549Z,2.20
2023-02-24T07:41:06.863Z,2.20
2023-02-24T07:43:34.417Z,2.20
2023-02-24T07:46:08.286Z,2.20
2023-02-24T07:48:36.459Z,2.20
2023-02-24T07:51:10.273Z,2.20
2023-02-24T07:53:36.972Z,2.20
2023-02-24T07:56:17.821Z,2.20
2023-02-24T07:58:44.948Z,2.20
2023-02-24T08:01:23.032Z,2.30
2023-02-24T08:03:52.053Z,2.30
2023-02-24T08:06:27.336Z,2.30
2023-02-24T08:08:58.113Z,2.40
2023-02-24T08:11:35.671Z,2.30
2023-02-24T08:14:03.197Z,2.40
2023-02-24T08:16:42.472Z,2.50
2023-02-24T08:19:13.245Z,2.50
2023-02-24T08:21:41.600Z,2.50
2023-02-24T08:24:17.695Z,2.60
2023-02-24T08:27:03.721Z,2.50
2023-02-24T08:29:31.498Z,2.50
2023-02-24T08:31:59.211Z,2.60
2023-02-24T08:34:31.770Z,2.70
2023-02-24T08:36:58.598Z,2.70
2023-02-24T08:39:30.234Z,2.70
2023-02-24T08:41:58.044Z,2.70
2023-02-24T08:44:27.181Z,2.70
2023-02-24T08:46:55.140Z,2.80
2023-02-24T08:49:24.921Z,2.80
2023-02-24T08:51:53.029Z,2.80
2023-02-24T08:54:27.142Z,2.80
2023-02-24T08:56:58.416Z,2.80
2023-02-24T08:59:29.270Z,2.90
2023-02-24T09:02:16.938Z,2.80
2023-02-24T09:04:47.621Z,2.80
2023-02-24T09:07:25.535Z,2.80
2023-02-24T09:09:56.508Z,2.80
2023-02-24T09:12:25.008Z,2.90
2023-02-24T09:15:18.603Z,3.00
2023-02-24T09:17:45.456Z,3.10
2023-02-24T09:20:27.440Z,3.10
2023-02-24T09:23:03.604Z,3.10
2023-02-24T09:25:49.764Z,3.10
2023-02-24T09:28:19.595Z,3.10
2023-02-24T09:30:53.886Z,3.10
2023-02-24T09:33:41.640Z,3.10
2023-02-24T09:36:13.075Z,3.20
2023-02-24T09:39:00.029Z,3.20
2023-02-24T09:41:54.838Z,3.20
2023-02-24T09:44:24.710Z,3.20
2023-02-24T09:46:57.730Z,3.20
2023-02-24T09:49:39.854Z,3.20
2023-02-24T09:52:17.609Z,3.20
2023-02-24T09:55:11.875Z,3.20
2023-02-24T09:58:02.664Z,3.20
2023-02-24T10:00:33.660Z,3.20
2023-02-24T10:03:21.094Z,3.20
2023-02-24T10:05:58.951Z,3.20
2023-02-24T10:08:33.720Z,3.20
2023-02-24T10:11:07.181Z,3.10
2023-02-24T10:13:38.294Z,3.10
2023-02-24T10:16:07.305Z,3.10
2023-02-24T10:18:39.949Z,3.10
2023-02-24T10:21:18.284Z,2.90
2023-02-24T10:23:56.626Z,3.00
2023-02-24T10:26:32.390Z,3.00
2023-02-24T10:28:59.079Z,3.00
2023-02-24T10:31:35.590Z,2.90
2023-02-24T10:34:07.542Z,2.90
2023-02-24T10:36:38.083Z,3.00
2023-02-24T10:39:27.283Z,3.10
2023-02-24T10:42:15.705Z,3.10
2023-02-24T10:45:01.486Z,3.10
2023-02-24T10:47:33.106Z,3.00
2023-02-24T10:50:01.470Z,3.10
2023-02-24T10:53:01.931Z,3.10
2023-02-24T10:55:43.868Z,3.00
2023-02-24T10:58:27.785Z,3.10
2023-02-24T11:01:12.902Z,3.10
2023-02-24T11:03:43.839Z,3.00
2023-02-24T11:06:40.860Z,3.00
2023-02-24T11:09:32.254Z,3.00
2023-02-24T11:12:18.916Z,3.00
2023-02-24T11:15:09.371Z,2.80
2023-02-24T11:17:37.075Z,3.00
2023-02-24T11:20:15.531Z,3.00
2023-02-24T11:22:43.268Z,2.90
2023-02-24T11:25:17.366Z,2.90
2023-02-24T11:27:45.833Z,2.80
2023-02-24T11:30:15.062Z,3.00
2023-02-24T11:32:42.555Z,3.00
2023-02-24T11:35:23.254Z,2.90
2023-02-24T11:38:07.673Z,3.00
2023-02-24T11:40:38.968Z,3.00
2023-02-24T11:43:10.990Z,2.90
2023-02-24T11:45:40.466Z,3.00
2023-02-24T11:48:14.906Z,3.10
2023-02-24T11:50:45.952Z,3.10
2023-02-24T11:53:30.975Z,3.20
2023-02-24T11:56:08.194Z,3.10
2023-02-24T11:58:46.727Z,3.10
2023-02-24T12:01:26.174Z,3.10
2023-02-24T12:04:01.334Z,3.20
2023-02-24T12:06:31.866Z,3.20
2023-02-24T12:09:07.794Z,3.20
2023-02-24T12:11:44.905Z,3.20
2023-02-24T12:14:23.598Z,3.30
2023-02-24T12:16:54.728Z,3.30
2023-02-24T12:19:44.551Z,3.30
2023-02-24T12:22:15.459Z,3.40
2023-02-24T12:24:47.410Z,3.40
2023-02-24T12:27:18.494Z,3.30
2023-02-24T12:29:52.436Z,3.30
2023-02-24T12:32:33.184Z,3.30
2023-02-24T12:35:07.384Z,3.40
2023-02-24T12:37:52.953Z,3.40
2023-02-24T12:40:40.074Z,3.30
2023-02-24T12:43:12.741Z,3.30
2023-02-24T12:45:52.325Z,3.40
2023-02-24T12:48:19.095Z,3.30
2023-02-24T12:50:48.744Z,3.30
2023-02-24T12:53:30.839Z,3.30
2023-02-24T12:56:01.010Z,3.30
2023-02-24T12:58:34.255Z,3.30
2023-02-24T13:01:13.311Z,3.20
2023-02-24T13:03:53.752Z,3.30
2023-02-24T13:06:30.680Z,3.20
2023-02-24T13:08:57.356Z,3.30
2023-02-24T13:11:37.323Z,3.30
2023-02-24T13:14:12.643Z,3.30
2023-02-24T13:16:39.550Z,3.40
2023-02-24T13:19:07.674Z,3.40
2023-02-24T13:21:34.650Z,3.40
2023-02-24T13:24:02.344Z,3.40
2023-02-24T13:26:31.088Z,3.50
2023-02-24T13:29:23.856Z,3.50
2023-02-24T13:31:51.903Z,3.40
2023-02-24T13:34:21.761Z,3.40
2023-02-24T13:36:49.457Z,3.40
2023-02-24T13:39:24.492Z,3.40
2023-02-24T13:42:01.458Z,3.40
2023-02-24T13:44:28.880Z,3.40
2023-02-24T13:47:14.265Z,3.40
2023-02-24T13:49:41.003Z,3.40
2023-02-24T13:52:27.963Z,3.40
2023-02-24T13:55:13.363Z,3.40
2023-02-24T13:57:52.126Z,3.40
2023-02-24T14:00:22.063Z,3.30
2023-02-24T14:02:52.879Z,3.30
2023-02-24T14:05:33.862Z,3.30
2023-02-24T14:08:01.283Z,3.30
2023-02-24T14:10:29.857Z,3.30
2023-02-24T14:13:02.949Z,3.30
2023-02-24T14:15:30.186Z,3.30
2023-02-24T14:18:04.230Z,3.30
2023-02-24T14:20:34.689Z,3.30
2023-02-24T14:23:01.957Z,3.30
2023-02-24T14:25:30.168Z,3.40
2023-02-24T14:27:57.095Z,3.30
2023-02-24T14:30:34.557Z,3.30
2023-02-24T14:33:02.305Z,3.30
2023-02-24T14:35:33.976Z,3.30
2023-02-24T14:38:02.340Z,3.30
2023-02-24T14:40:29.469Z,3.20
2023-02-24T14:42:57.224Z,3.30
2023-02-24T14:45:26.025Z,3.20
2023-02-24T14:47:56.305Z,3.20
2023-02-24T14:50:29.421Z,3.20
2023-02-24T14:52:59.660Z,3.20
2023-02-24T14:55:28.058Z,3.20
2023-02-24T14:58:03.804Z,3.20
2023-02-24T15:00:33.008Z,3.10
2023-02-24T15:03:05.877Z,3.10
2023-02-24T15:05:32.734Z,3.10
2023-02-24T15:08:01.334Z,3.10
2023-02-24T15:10:29.914Z,3.00
2023-02-24T15:13:04.910Z,3.00
2023-02-24T15:15:35.116Z,3.00
2023-02-24T15:18:10.818Z,3.00
2023-02-24T15:20:38.617Z,3.00
2023-02-24T15:23:05.816Z,3.00
2023-02-24T15:25:47.201Z,3.00
2023-02-24T15:28:34.127Z,3.00
2023-02-24T15:31:04.743Z,3.00
2023-02-24T15:33:42.192Z,3.00
2023-02-24T15:36:11.354Z,3.00
2023-02-24T15:38:44.925Z,3.00
2023-02-24T15:41:12.720Z,3.00
2023-02-24T15:43:47.305Z,3.00
2023-02-24T15:46:33.689Z,3.00
2023-02-24T15:49:03.310Z,3.00
2023-02-24T15:51:40.834Z,2.90
2023-02-24T15:54:12.931Z,3.00
2023-02-24T15:56:40.346Z,3.00
2023-02-24T15:59:07.215Z,3.00
2023-02-24T16:01:34.290Z,3.00
2023-02-24T16:04:01.917Z,3.00
2023-02-24T16:06:28.878Z,3.00
2023-02-24T16:08:57.630Z,3.00
2023-02-24T16:11:26.619Z,3.00
2023-02-24T16:13:55.189Z,3.00
2023-02-24T16:16:23.976Z,3.00
2023-02-24T16:18:51.225Z,3.00
2023-02-24T16:21:18.146Z,3.00
2023-02-24T16:23:44.935Z,3.00
2023-02-24T16:26:23.082Z,3.00
2023-02-24T16:28:54.660Z,3.00
2023-02-24T16:31:22.270Z,3.00
2023-02-24T16:33:55.046Z,3.00
2023-02-24T16:36:23.832Z,3.00
2023-02-24T16:38:51.737Z,3.00
2023-02-24T16:41:18.869Z,3.00
2023-02-24T16:43:45.671Z,2.90
2023-02-24T16:46:14.511Z,2.90
2023-02-24T16:48:43.045Z,2.90
2023-02-24T16:51:10.803Z,2.90
2023-02-24T16:53:37.774Z,2.90
2023-02-24T16:56:04.897Z,2.90
2023-02-24T16:58:31.792Z,2.90
2023-02-24T17:01:00.290Z,2.90
2023-02-24T17:03:33.555Z,2.90
2023-02-24T17:06:00.304Z,2.90
2023-02-24T17:08:27.221Z,2.90
2023-02-24T17:10:54.198Z,2.90
2023-02-24T17:13:21.929Z,2.90
2023-02-24T17:15:50.065Z,2.80
2023-02-24T17:18:16.829Z,2.90
2023-02-24T17:20:43.760Z,2.90
2023-02-24T17:23:11.278Z,2.80
2023-02-24T17:25:38.200Z,2.90
2023-02-24T17:28:06.350Z,2.90
2023-02-24T17:30:34.736Z,2.90
2023-02-24T17:33:01.608Z,2.90
2023-02-24T17:35:28.787Z,2.90
2023-02-24T17:37:55.710Z,2.90
2023-02-24T17:40:22.860Z,2.80
2023-02-24T17:42:49.796Z,2.80
2023-02-24T17:45:16.580Z,2.90
2023-02-24T17:47:43.290Z,2.90
2023-02-24T17:50:11.268Z,2.90
2023-02-24T17:52:38.475Z,2.90
2023-02-24T17:55:05.755Z,2.80
2023-02-24T17:57:34.079Z,2.80
2023-02-24T18:00:00.925Z,2.80
2023-02-24T18:02:27.749Z,2.80
2023-02-24T18:04:54.586Z,2.70
2023-02-24T18:07:21.321Z,2.80
2023-02-24T18:09:48.070Z,2.80
2023-02-24T18:12:14.819Z,2.70
2023-02-24T18:14:41.608Z,2.70
2023-02-24T18:17:08.390Z,2.70
2023-02-24T18:19:35.180Z,2.70
2023-02-24T18:22:01.861Z,2.70
2023-02-24T18:24:28.540Z,2.60
2023-02-24T18:26:55.293Z,2.60
2023-02-24T18:29:22.079Z,2.60
2023-02-24T18:31:49.052Z,2.60
2023-02-24T18:34:15.900Z,2.60
2023-02-24T18:36:42.651Z,2.60
2023-02-24T18:39:09.958Z,2.50
2023-02-24T18:41:36.714Z,2.50
2023-02-24T18:44:03.491Z,2.50
2023-02-24T18:46:30.380Z,2.60
2023-02-24T18:48:57.548Z,2.60
2023-02-24T18:51:26.597Z,2.60
2023-02-24T18:53:53.591Z,2.60
2023-02-24T18:56:24.741Z,2.60
2023-02-24T18:58:53.725Z,2.70
2023-02-24T19:01:22.097Z,2.70
2023-02-24T19:03:49.615Z,2.60
2023-02-24T19:06:19.174Z,2.70
2023-02-24T19:08:46.482Z,2.70
2023-02-24T19:11:15.054Z,2.70
2023-02-24T19:13:41.991Z,2.70
2023-02-24T19:16:09.204Z,2.70
2023-02-24T19:18:36.118Z,2.70
2023-02-24T19:21:05.292Z,2.70
2023-02-24T19:23:31.980Z,2.70
2023-02-24T19:25:58.978Z,2.70
2023-02-24T19:28:25.802Z,2.70
2023-02-24T19:30:54.166Z,2.70
2023-02-24T19:33:21.475Z,2.70
2023-02-24T19:35:48.579Z,2.60
2023-02-24T19:38:16.628Z,2.60
2023-02-24T19:40:44.004Z,2.50
2023-02-24T19:43:11.099Z,2.60
2023-02-24T19:45:43.911Z,2.60
2023-02-24T19:48:10.893Z,2.60
2023-02-24T19:50:41.242Z,2.60
2023-02-24T19:53:08.819Z,2.70
2023-02-24T19:55:35.561Z,2.70
2023-02-24T19:58:02.539Z,2.70
2023-02-24T20:00:30.284Z,2.70
2023-02-24T20:02:57.006Z,2.70
2023-02-24T20:05:24.858Z,2.70
2023-02-24T20:07:51.574Z,2.70
2023-02-24T20:10:18.787Z,2.70
2023-02-24T20:12:45.504Z,2.70
2023-02-24T20:15:12.309Z,2.70
2023-02-24T20:17:39.067Z,2.70
2023-02-24T20:20:06.159Z,2.70
2023-02-24T20:22:32.904Z,2.70
2023-02-24T20:24:59.602Z,2.70
2023-02-24T20:27:26.429Z,2.70
2023-02-24T20:29:55.929Z,2.70
2023-02-24T20:32:23.510Z,2.70
2023-02-24T20:34:50.486Z,2.70
2023-02-24T20:37:17.283Z,2.70
2023-02-24T20:39:44.062Z,2.60
2023-02-24T20:42:12.180Z,2.70
2023-02-24T20:44:39.052Z,2.60
2023-02-24T20:47:05.834Z,2.60
2023-02-24T20:49:33.043Z,2.70
2023-02-24T20:51:59.856Z,2.70
2023-02-24T20:54:26.634Z,2.70
2023-02-24T20:56:53.450Z,2.70
2023-02-24T20:59:22.037Z,2.70
2023-02-24T21:01:49.517Z,2.70
2023-02-24T21:04:17.883Z,2.70
2023-02-24T21:06:46.638Z,2.60
2023-02-24T21:09:13.979Z,2.60
2023-02-24T21:11:40.785Z,2.70
2023-02-24T21:14:07.592Z,2.70
2023-02-24T21:16:37.043Z,2.70
2023-02-24T21:19:03.755Z,2.70
2023-02-24T21:21:30.596Z,2.60
2023-02-24T21:23:57.382Z,2.60
2023-02-24T21:26:26.856Z,2.70
2023-02-24T21:28:57.268Z,2.70
2023-02-24T21:31:24.971Z,2.60
2023-02-24T21:33:52.834Z,2.60
2023-02-24T21:36:27.746Z,2.60
2023-02-24T21:38:54.966Z,2.70
2023-02-24T21:41:21.878Z,2.70
2023-02-24T21:43:51.466Z,2.70
2023-02-24T21:46:18.234Z,2.60
2023-02-24T21:48:45.509Z,2.70
2023-02-24T21:51:13.614Z,2.70
2023-02-24T21:53:41.142Z,2.70
2023-02-24T21:56:11.103Z,2.70
2023-02-24T21:58:39.292Z,2.70
2023-02-24T22:01:13.885Z,2.70
2023-02-24T22:03:41.223Z,2.70
2023-02-24T22:06:09.717Z,2.70
2023-02-24T22:08:37.790Z,2.80
2023-02-24T22:11:04.550Z,2.80
2023-02-24T22:13:31.267Z,2.70
2023-02-24T22:16:02.061Z,2.70
2023-02-24T22:18:29.281Z,2.70
2023-02-24T22:20:55.993Z,2.70
2023-02-24T22:23:22.795Z,2.80
2023-02-24T22:25:51.359Z,2.80
2023-02-24T22:28:22.447Z,2.80
2023-02-24T22:31:01.309Z,2.70
2023-02-24T22:33:29.271Z,2.70
2023-02-24T22:35:56.668Z,2.80
2023-02-24T22:38:23.380Z,2.80
2023-02-24T22:40:58.977Z,2.80
2023-02-24T22:43:26.310Z,2.80
2023-02-24T22:45:57.024Z,2.80
2023-02-24T22:48:26.520Z,2.70
2023-02-24T22:50:57.322Z,2.80
2023-02-24T22:53:31.059Z,2.80
2023-02-24T22:55:58.046Z,2.70
2023-02-24T22:58:25.901Z,2.80
2023-02-24T23:00:54.643Z,2.80
2023-02-24T23:03:23.421Z,2.80
2023-02-24T23:05:57.061Z,2.80
2023-02-24T23:08:24.110Z,2.80
2023-02-24T23:10:50.837Z,2.70
2023-02-24T23:13:18.092Z,2.70
2023-02-24T23:15:44.871Z,2.70
2023-02-24T23:18:12.143Z,2.70
2023-02-24T23:20:38.896Z,2.70
2023-02-24T23:23:05.678Z,2.70
2023-02-24T23:25:32.455Z,2.70
2023-02-24T23:27:59.377Z,2.80
2023-02-24T23:30:26.138Z,2.80
2023-02-24T23:32:52.929Z,2.80
2023-02-24T23:35:19.701Z,2.80
2023-02-24T23:37:46.445Z,2.70
2023-02-24T23:40:15.929Z,2.80
2023-02-24T23:42:42.790Z,2.80
2023-02-24T23:45:11.266Z,2.80
2023-02-24T23:47:38.129Z,2.70
2023-02-24T23:50:04.991Z,2.70
2023-02-24T23:52:31.721Z,2.70
2023-02-24T23:54:58.506Z,2.80
2023-02-24T23:57:27.177Z,2.80
2023-02-24T23:59:53.937Z,2.80
